sensor_id;sensor_type;location;lat;lon;timestamp;temperature;humidity
67942;SHT31;54731;42.600;23.476;2023-02-08T00:01:43;-6.05;74.76
67942;SHT31;54731;42.600;23.476;2023-02-08T00:04:09;-6.00;74.36
67942;SHT31;54731;42.600;23.476;2023-02-08T00:06:34;-5.95;74.18
67942;SHT31;54731;42.600;23.476;2023-02-08T00:09:00;-5.98;74.36
67942;SHT31;54731;42.600;23.476;2023-02-08T00:11:26;-6.14;74.84
67942;SHT31;54731;42.600;23.476;2023-02-08T00:13:51;-6.10;74.78
67942;SHT31;54731;42.600;23.476;2023-02-08T00:16:17;-6.07;74.83
67942;SHT31;54731;42.600;23.476;2023-02-08T00:18:43;-6.05;74.70
67942;SHT31;54731;42.600;23.476;2023-02-08T00:21:16;-5.98;74.40
67942;SHT31;54731;42.600;23.476;2023-02-08T00:23:42;-6.05;74.54
67942;SHT31;54731;42.600;23.476;2023-02-08T00:26:08;-6.05;74.56
67942;SHT31;54731;42.600;23.476;2023-02-08T00:28:34;-6.07;74.77
67942;SHT31;54731;42.600;23.476;2023-02-08T00:31:00;-5.98;74.71
67942;SHT31;54731;42.600;23.476;2023-02-08T00:33:25;-5.98;74.85
67942;SHT31;54731;42.600;23.476;2023-02-08T00:35:57;-5.93;74.82
67942;SHT31;54731;42.600;23.476;2023-02-08T00:38:23;-5.94;74.26
67942;SHT31;54731;42.600;23.476;2023-02-08T00:40:48;-5.94;74.36
67942;SHT31;54731;42.600;23.476;2023-02-08T00:43:14;-5.94;74.32
67942;SHT31;54731;42.600;23.476;2023-02-08T00:45:43;-5.93;74.47
67942;SHT31;54731;42.600;23.476;2023-02-08T00:48:08;-5.87;74.24
67942;SHT31;54731;42.600;23.476;2023-02-08T00:50:34;-5.94;74.60
67942;SHT31;54731;42.600;23.476;2023-02-08T00:53:00;-5.91;74.28
67942;SHT31;54731;42.600;23.476;2023-02-08T00:55:26;-5.98;74.48
67942;SHT31;54731;42.600;23.476;2023-02-08T00:57:54;-5.91;74.51
67942;SHT31;54731;42.600;23.476;2023-02-08T01:00:20;-5.91;74.27
67942;SHT31;54731;42.600;23.476;2023-02-08T01:02:48;-5.95;74.53
67942;SHT31;54731;42.600;23.476;2023-02-08T01:05:13;-5.87;74.26
67942;SHT31;54731;42.600;23.476;2023-02-08T01:07:39;-5.89;74.33
67942;SHT31;54731;42.600;23.476;2023-02-08T01:10:09;-5.94;74.47
67942;SHT31;54731;42.600;23.476;2023-02-08T01:12:35;-5.94;74.71
67942;SHT31;54731;42.600;23.476;2023-02-08T01:15:00;-5.86;74.55
67942;SHT31;54731;42.600;23.476;2023-02-08T01:17:26;-5.93;74.45
67942;SHT31;54731;42.600;23.476;2023-02-08T01:19:55;-5.90;74.55
67942;SHT31;54731;42.600;23.476;2023-02-08T01:22:20;-5.97;74.33
67942;SHT31;54731;42.600;23.476;2023-02-08T01:24:45;-5.91;74.28
67942;SHT31;54731;42.600;23.476;2023-02-08T01:27:11;-5.94;74.60
67942;SHT31;54731;42.600;23.476;2023-02-08T01:29:36;-5.93;74.58
67942;SHT31;54731;42.600;23.476;2023-02-08T01:32:02;-5.95;74.30
67942;SHT31;54731;42.600;23.476;2023-02-08T01:34:28;-5.89;74.18
67942;SHT31;54731;42.600;23.476;2023-02-08T01:36:54;-5.91;74.42
67942;SHT31;54731;42.600;23.476;2023-02-08T01:39:19;-5.91;74.87
67942;SHT31;54731;42.600;23.476;2023-02-08T01:41:45;-5.90;74.70
67942;SHT31;54731;42.600;23.476;2023-02-08T01:46:39;-5.90;74.76
67942;SHT31;54731;42.600;23.476;2023-02-08T01:49:15;-5.87;74.64
67942;SHT31;54731;42.600;23.476;2023-02-08T01:52:13;-5.95;74.77
67942;SHT31;54731;42.600;23.476;2023-02-08T01:54:52;-5.90;75.14
67942;SHT31;54731;42.600;23.476;2023-02-08T01:57:21;-5.86;74.78
67942;SHT31;54731;42.600;23.476;2023-02-08T01:59:53;-5.83;74.64
67942;SHT31;54731;42.600;23.476;2023-02-08T02:02:21;-5.79;74.60
67942;SHT31;54731;42.600;23.476;2023-02-08T02:04:48;-5.77;74.30
67942;SHT31;54731;42.600;23.476;2023-02-08T02:07:16;-5.74;74.41
67942;SHT31;54731;42.600;23.476;2023-02-08T02:12:16;-5.73;74.69
67942;SHT31;54731;42.600;23.476;2023-02-08T02:14:42;-5.74;74.63
67942;SHT31;54731;42.600;23.476;2023-02-08T02:17:10;-5.73;74.62
67942;SHT31;54731;42.600;23.476;2023-02-08T02:27:40;-5.89;75.38
67942;SHT31;54731;42.600;23.476;2023-02-08T02:41:32;-5.90;76.19
67942;SHT31;54731;42.600;23.476;2023-02-08T02:44:00;-5.87;76.23
67942;SHT31;54731;42.600;23.476;2023-02-08T02:46:51;-5.84;76.26
67942;SHT31;54731;42.600;23.476;2023-02-08T02:49:35;-5.93;76.54
67942;SHT31;54731;42.600;23.476;2023-02-08T02:52:25;-6.14;78.14
67942;SHT31;54731;42.600;23.476;2023-02-08T02:54:57;-6.17;78.50
67942;SHT31;54731;42.600;23.476;2023-02-08T02:57:30;-6.14;78.41
67942;SHT31;54731;42.600;23.476;2023-02-08T02:59:57;-6.07;78.19
67942;SHT31;54731;42.600;23.476;2023-02-08T03:02:25;-6.03;78.18
67942;SHT31;54731;42.600;23.476;2023-02-08T03:04:56;-6.00;78.30
67942;SHT31;54731;42.600;23.476;2023-02-08T03:16:12;-6.04;78.91
67942;SHT31;54731;42.600;23.476;2023-02-08T03:27:05;-6.39;79.42
67942;SHT31;54731;42.600;23.476;2023-02-08T03:29:44;-6.42;79.72
67942;SHT31;54731;42.600;23.476;2023-02-08T03:35:03;-6.38;79.67
67942;SHT31;54731;42.600;23.476;2023-02-08T03:37:37;-6.24;79.69
67942;SHT31;54731;42.600;23.476;2023-02-08T03:40:15;-6.18;79.41
67942;SHT31;54731;42.600;23.476;2023-02-08T03:42:44;-6.13;79.50
67942;SHT31;54731;42.600;23.476;2023-02-08T03:45:23;-6.07;79.28
67942;SHT31;54731;42.600;23.476;2023-02-08T03:47:53;-6.04;79.10
67942;SHT31;54731;42.600;23.476;2023-02-08T03:50:21;-6.18;78.89
67942;SHT31;54731;42.600;23.476;2023-02-08T03:52:49;-6.39;79.14
67942;SHT31;54731;42.600;23.476;2023-02-08T03:55:30;-6.31;79.29
67942;SHT31;54731;42.600;23.476;2023-02-08T03:58:10;-6.45;79.40
67942;SHT31;54731;42.600;23.476;2023-02-08T04:00:40;-6.42;79.50
67942;SHT31;54731;42.600;23.476;2023-02-08T04:03:14;-6.38;79.41
67942;SHT31;54731;42.600;23.476;2023-02-08T04:05:41;-6.44;79.40
67942;SHT31;54731;42.600;23.476;2023-02-08T04:08:07;-6.39;79.51
67942;SHT31;54731;42.600;23.476;2023-02-08T04:10:33;-6.31;79.38
67942;SHT31;54731;42.600;23.476;2023-02-08T04:12:59;-6.21;79.19
67942;SHT31;54731;42.600;23.476;2023-02-08T04:15:27;-6.13;79.03
67942;SHT31;54731;42.600;23.476;2023-02-08T04:17:53;-6.15;78.87
67942;SHT31;54731;42.600;23.476;2023-02-08T04:20:19;-6.17;78.70
67942;SHT31;54731;42.600;23.476;2023-02-08T04:22:48;-6.17;78.48
67942;SHT31;54731;42.600;23.476;2023-02-08T04:25:13;-6.18;78.40
67942;SHT31;54731;42.600;23.476;2023-02-08T04:27:39;-6.25;78.00
67942;SHT31;54731;42.600;23.476;2023-02-08T04:30:04;-6.22;77.78
67942;SHT31;54731;42.600;23.476;2023-02-08T04:32:30;-6.24;77.36
67942;SHT31;54731;42.600;23.476;2023-02-08T04:35:01;-6.28;77.08
67942;SHT31;54731;42.600;23.476;2023-02-08T04:37:27;-6.34;77.11
67942;SHT31;54731;42.600;23.476;2023-02-08T04:39:52;-6.35;77.27
67942;SHT31;54731;42.600;23.476;2023-02-08T04:42:18;-6.35;77.17
67942;SHT31;54731;42.600;23.476;2023-02-08T04:44:43;-6.41;77.19
67942;SHT31;54731;42.600;23.476;2023-02-08T04:47:09;-6.52;77.09
67942;SHT31;54731;42.600;23.476;2023-02-08T04:49:34;-6.50;76.84
67942;SHT31;54731;42.600;23.476;2023-02-08T04:52:00;-6.66;76.86
67942;SHT31;54731;42.600;23.476;2023-02-08T04:54:25;-6.62;77.05
67942;SHT31;54731;42.600;23.476;2023-02-08T04:56:51;-6.66;77.05
67942;SHT31;54731;42.600;23.476;2023-02-08T04:59:16;-6.72;76.67
67942;SHT31;54731;42.600;23.476;2023-02-08T05:01:42;-6.71;76.82
67942;SHT31;54731;42.600;23.476;2023-02-08T05:04:08;-6.73;76.69
67942;SHT31;54731;42.600;23.476;2023-02-08T05:06:33;-6.78;76.95
67942;SHT31;54731;42.600;23.476;2023-02-08T05:08:59;-6.76;77.76
67942;SHT31;54731;42.600;23.476;2023-02-08T05:11:25;-6.73;78.17
67942;SHT31;54731;42.600;23.476;2023-02-08T05:13:51;-6.76;78.16
67942;SHT31;54731;42.600;23.476;2023-02-08T05:16:17;-6.78;78.09
67942;SHT31;54731;42.600;23.476;2023-02-08T05:18:43;-6.71;78.06
67942;SHT31;54731;42.600;23.476;2023-02-08T05:21:12;-6.75;78.04
67942;SHT31;54731;42.600;23.476;2023-02-08T05:23:38;-6.75;78.05
67942;SHT31;54731;42.600;23.476;2023-02-08T05:26:09;-6.69;78.28
67942;SHT31;54731;42.600;23.476;2023-02-08T05:28:38;-6.68;78.65
67942;SHT31;54731;42.600;23.476;2023-02-08T05:31:10;-6.71;79.12
67942;SHT31;54731;42.600;23.476;2023-02-08T05:33:36;-6.65;79.10
67942;SHT31;54731;42.600;23.476;2023-02-08T05:36:01;-6.72;79.22
67942;SHT31;54731;42.600;23.476;2023-02-08T05:38:29;-6.69;79.16
67942;SHT31;54731;42.600;23.476;2023-02-08T05:40:55;-6.72;78.88
67942;SHT31;54731;42.600;23.476;2023-02-08T05:43:23;-6.78;78.72
67942;SHT31;54731;42.600;23.476;2023-02-08T05:45:49;-6.80;78.28
67942;SHT31;54731;42.600;23.476;2023-02-08T05:48:15;-6.80;77.60
67942;SHT31;54731;42.600;23.476;2023-02-08T05:50:41;-6.83;77.39
67942;SHT31;54731;42.600;23.476;2023-02-08T05:53:06;-6.80;77.26
67942;SHT31;54731;42.600;23.476;2023-02-08T05:55:32;-6.89;77.26
67942;SHT31;54731;42.600;23.476;2023-02-08T05:57:57;-6.93;77.46
67942;SHT31;54731;42.600;23.476;2023-02-08T06:00:23;-6.95;77.22
67942;SHT31;54731;42.600;23.476;2023-02-08T06:02:49;-6.92;77.28
67942;SHT31;54731;42.600;23.476;2023-02-08T06:05:21;-6.90;77.09
67942;SHT31;54731;42.600;23.476;2023-02-08T06:07:52;-6.90;77.24
67942;SHT31;54731;42.600;23.476;2023-02-08T06:10:17;-7.00;77.38
67942;SHT31;54731;42.600;23.476;2023-02-08T06:12:43;-6.97;77.55
67942;SHT31;54731;42.600;23.476;2023-02-08T06:15:11;-6.95;77.46
67942;SHT31;54731;42.600;23.476;2023-02-08T06:17:37;-6.93;77.40
67942;SHT31;54731;42.600;23.476;2023-02-08T06:20:05;-6.92;77.22
67942;SHT31;54731;42.600;23.476;2023-02-08T06:22:33;-6.88;77.03
67942;SHT31;54731;42.600;23.476;2023-02-08T06:24:58;-6.92;76.32
67942;SHT31;54731;42.600;23.476;2023-02-08T06:27:24;-6.92;76.00
67942;SHT31;54731;42.600;23.476;2023-02-08T06:29:49;-6.92;75.85
67942;SHT31;54731;42.600;23.476;2023-02-08T06:32:14;-6.99;75.44
67942;SHT31;54731;42.600;23.476;2023-02-08T06:34:40;-7.00;75.24
67942;SHT31;54731;42.600;23.476;2023-02-08T06:37:05;-7.10;75.32
67942;SHT31;54731;42.600;23.476;2023-02-08T06:39:30;-7.10;75.68
67942;SHT31;54731;42.600;23.476;2023-02-08T06:41:56;-7.10;75.51
67942;SHT31;54731;42.600;23.476;2023-02-08T06:44:21;-7.07;75.66
67942;SHT31;54731;42.600;23.476;2023-02-08T06:46:47;-7.06;75.79
67942;SHT31;54731;42.600;23.476;2023-02-08T06:49:12;-7.00;75.76
67942;SHT31;54731;42.600;23.476;2023-02-08T06:51:39;-6.92;75.71
67942;SHT31;54731;42.600;23.476;2023-02-08T06:54:04;-6.93;75.54
67942;SHT31;54731;42.600;23.476;2023-02-08T06:56:29;-6.86;75.46
67942;SHT31;54731;42.600;23.476;2023-02-08T06:58:55;-6.85;75.45
67942;SHT31;54731;42.600;23.476;2023-02-08T07:01:20;-6.78;75.32
67942;SHT31;54731;42.600;23.476;2023-02-08T07:03:46;-6.78;75.35
67942;SHT31;54731;42.600;23.476;2023-02-08T07:06:13;-6.72;75.63
67942;SHT31;54731;42.600;23.476;2023-02-08T07:08:39;-6.65;75.66
67942;SHT31;54731;42.600;23.476;2023-02-08T07:11:12;-6.55;75.69
67942;SHT31;54731;42.600;23.476;2023-02-08T07:13:38;-6.53;75.57
67942;SHT31;54731;42.600;23.476;2023-02-08T07:16:04;-6.49;75.47
67942;SHT31;54731;42.600;23.476;2023-02-08T07:18:30;-6.42;75.12
67942;SHT31;54731;42.600;23.476;2023-02-08T07:20:55;-6.38;74.87
67942;SHT31;54731;42.600;23.476;2023-02-08T07:23:20;-6.34;74.68
67942;SHT31;54731;42.600;23.476;2023-02-08T07:25:59;-6.32;74.57
67942;SHT31;54731;42.600;23.476;2023-02-08T07:28:24;-6.31;74.60
67942;SHT31;54731;42.600;23.476;2023-02-08T07:30:50;-6.31;74.54
67942;SHT31;54731;42.600;23.476;2023-02-08T07:33:15;-6.28;74.85
67942;SHT31;54731;42.600;23.476;2023-02-08T07:35:40;-6.18;75.02
67942;SHT31;54731;42.600;23.476;2023-02-08T07:38:06;-6.14;75.44
67942;SHT31;54731;42.600;23.476;2023-02-08T07:40:31;-6.22;76.07
67942;SHT31;54731;42.600;23.476;2023-02-08T07:42:56;-6.20;76.42
67942;SHT31;54731;42.600;23.476;2023-02-08T07:45:22;-6.07;75.74
67942;SHT31;54731;42.600;23.476;2023-02-08T07:47:47;-6.03;75.51
67942;SHT31;54731;42.600;23.476;2023-02-08T07:50:14;-5.94;75.10
67942;SHT31;54731;42.600;23.476;2023-02-08T07:52:39;-5.93;74.79
67942;SHT31;54731;42.600;23.476;2023-02-08T07:55:05;-5.94;74.78
67942;SHT31;54731;42.600;23.476;2023-02-08T07:57:30;-5.93;74.95
67942;SHT31;54731;42.600;23.476;2023-02-08T07:59:55;-5.86;75.12
67942;SHT31;54731;42.600;23.476;2023-02-08T08:02:21;-5.73;74.78
67942;SHT31;54731;42.600;23.476;2023-02-08T08:04:46;-5.62;74.55
67942;SHT31;54731;42.600;23.476;2023-02-08T08:07:11;-5.66;75.06
67942;SHT31;54731;42.600;23.476;2023-02-08T08:09:36;-5.69;75.51
67942;SHT31;54731;42.600;23.476;2023-02-08T08:12:02;-5.60;75.25
67942;SHT31;54731;42.600;23.476;2023-02-08T08:14:27;-5.49;75.14
67942;SHT31;54731;42.600;23.476;2023-02-08T08:16:52;-5.42;75.09
67942;SHT31;54731;42.600;23.476;2023-02-08T08:19:18;-5.38;74.80
67942;SHT31;54731;42.600;23.476;2023-02-08T08:21:43;-5.36;74.94
67942;SHT31;54731;42.600;23.476;2023-02-08T08:24:08;-5.39;75.01
67942;SHT31;54731;42.600;23.476;2023-02-08T08:26:34;-5.44;74.80
67942;SHT31;54731;42.600;23.476;2023-02-08T08:28:59;-5.38;74.86
67942;SHT31;54731;42.600;23.476;2023-02-08T08:31:24;-5.22;74.94
67942;SHT31;54731;42.600;23.476;2023-02-08T08:33:50;-5.18;74.72
67942;SHT31;54731;42.600;23.476;2023-02-08T08:36:15;-5.26;74.43
67942;SHT31;54731;42.600;23.476;2023-02-08T08:38:40;-5.16;74.25
67942;SHT31;54731;42.600;23.476;2023-02-08T08:41:11;-5.08;73.38
67942;SHT31;54731;42.600;23.476;2023-02-08T08:43:36;-4.95;72.00
67942;SHT31;54731;42.600;23.476;2023-02-08T08:46:04;-4.92;70.48
67942;SHT31;54731;42.600;23.476;2023-02-08T08:48:29;-4.92;69.86
67942;SHT31;54731;42.600;23.476;2023-02-08T08:50:55;-4.75;69.83
67942;SHT31;54731;42.600;23.476;2023-02-08T08:53:20;-4.65;70.57
67942;SHT31;54731;42.600;23.476;2023-02-08T08:55:45;-4.74;70.43
67942;SHT31;54731;42.600;23.476;2023-02-08T08:58:11;-4.64;71.95
67942;SHT31;54731;42.600;23.476;2023-02-08T09:00:36;-4.78;72.65
67942;SHT31;54731;42.600;23.476;2023-02-08T09:03:01;-4.77;73.62
67942;SHT31;54731;42.600;23.476;2023-02-08T09:05:26;-4.68;73.28
67942;SHT31;54731;42.600;23.476;2023-02-08T09:07:52;-4.53;73.43
67942;SHT31;54731;42.600;23.476;2023-02-08T09:10:17;-4.43;73.30
67942;SHT31;54731;42.600;23.476;2023-02-08T09:12:42;-4.36;72.98
67942;SHT31;54731;42.600;23.476;2023-02-08T09:15:08;-4.27;71.92
67942;SHT31;54731;42.600;23.476;2023-02-08T09:17:33;-4.13;72.20
67942;SHT31;54731;42.600;23.476;2023-02-08T09:19:58;-3.99;71.56
67942;SHT31;54731;42.600;23.476;2023-02-08T09:22:24;-4.22;69.27
67942;SHT31;54731;42.600;23.476;2023-02-08T09:24:51;-4.16;69.63
67942;SHT31;54731;42.600;23.476;2023-02-08T09:27:17;-3.99;69.40
67942;SHT31;54731;42.600;23.476;2023-02-08T09:29:42;-3.89;69.01
67942;SHT31;54731;42.600;23.476;2023-02-08T09:32:07;-3.77;68.20
67942;SHT31;54731;42.600;23.476;2023-02-08T09:34:33;-3.59;67.78
67942;SHT31;54731;42.600;23.476;2023-02-08T09:36:58;-3.48;66.51
67942;SHT31;54731;42.600;23.476;2023-02-08T09:39:24;-3.50;65.39
67942;SHT31;54731;42.600;23.476;2023-02-08T09:45:25;-3.17;66.07
67942;SHT31;54731;42.600;23.476;2023-02-08T09:47:57;-3.03;64.89
67942;SHT31;54731;42.600;23.476;2023-02-08T09:50:31;-2.90;65.33
67942;SHT31;54731;42.600;23.476;2023-02-08T09:53:03;-2.83;64.28
67942;SHT31;54731;42.600;23.476;2023-02-08T09:55:41;-2.73;63.96
67942;SHT31;54731;42.600;23.476;2023-02-08T09:58:32;-2.69;63.26
67942;SHT31;54731;42.600;23.476;2023-02-08T10:00:58;-2.62;63.45
67942;SHT31;54731;42.600;23.476;2023-02-08T10:03:38;-2.59;64.10
67942;SHT31;54731;42.600;23.476;2023-02-08T10:06:05;-2.52;63.12
67942;SHT31;54731;42.600;23.476;2023-02-08T10:08:31;-2.41;63.26
67942;SHT31;54731;42.600;23.476;2023-02-08T10:13:43;-2.42;60.97
67942;SHT31;54731;42.600;23.476;2023-02-08T10:17:21;-2.32;61.93
67942;SHT31;54731;42.600;23.476;2023-02-08T10:19:46;-2.09;61.79
67942;SHT31;54731;42.600;23.476;2023-02-08T10:22:31;-2.04;61.85
67942;SHT31;54731;42.600;23.476;2023-02-08T10:28:14;-1.86;60.17
67942;SHT31;54731;42.600;23.476;2023-02-08T10:33:39;-1.67;58.98
67942;SHT31;54731;42.600;23.476;2023-02-08T10:36:13;-1.59;58.64
67942;SHT31;54731;42.600;23.476;2023-02-08T10:38:41;-1.54;59.19
67942;SHT31;54731;42.600;23.476;2023-02-08T10:41:06;-1.46;58.27
67942;SHT31;54731;42.600;23.476;2023-02-08T10:46:19;-1.36;57.67
67942;SHT31;54731;42.600;23.476;2023-02-08T10:51:34;-1.08;58.00
67942;SHT31;54731;42.600;23.476;2023-02-08T10:54:00;-1.19;56.00
67942;SHT31;54731;42.600;23.476;2023-02-08T10:58:54;-1.05;55.67
67942;SHT31;54731;42.600;23.476;2023-02-08T11:01:19;-1.59;57.17
67942;SHT31;54731;42.600;23.476;2023-02-08T11:04:20;-1.31;58.20
67942;SHT31;54731;42.600;23.476;2023-02-08T11:06:47;-1.09;58.11
67942;SHT31;54731;42.600;23.476;2023-02-08T11:09:29;-0.82;56.80
67942;SHT31;54731;42.600;23.476;2023-02-08T11:11:56;-0.91;57.36
67942;SHT31;54731;42.600;23.476;2023-02-08T11:14:25;-0.67;57.79
67942;SHT31;54731;42.600;23.476;2023-02-08T11:16:55;-0.60;57.58
67942;SHT31;54731;42.600;23.476;2023-02-08T11:19:36;-0.38;56.76
67942;SHT31;54731;42.600;23.476;2023-02-08T11:22:03;-0.23;56.72
67942;SHT31;54731;42.600;23.476;2023-02-08T11:26:56;-0.02;55.46
67942;SHT31;54731;42.600;23.476;2023-02-08T11:29:26;-0.45;55.56
67942;SHT31;54731;42.600;23.476;2023-02-08T11:34:33;0.11;55.55
67942;SHT31;54731;42.600;23.476;2023-02-08T11:37:01;0.22;54.42
67942;SHT31;54731;42.600;23.476;2023-02-08T11:39:39;0.45;55.49
67942;SHT31;54731;42.600;23.476;2023-02-08T11:42:06;0.76;54.39
67942;SHT31;54731;42.600;23.476;2023-02-08T11:44:40;0.70;54.01
67942;SHT31;54731;42.600;23.476;2023-02-08T11:47:08;0.99;54.07
67942;SHT31;54731;42.600;23.476;2023-02-08T11:52:03;1.54;52.83
67942;SHT31;54731;42.600;23.476;2023-02-08T11:54:40;0.95;50.10
67942;SHT31;54731;42.600;23.476;2023-02-08T11:59:39;1.57;51.61
67942;SHT31;54731;42.600;23.476;2023-02-08T12:02:24;1.93;50.10
67942;SHT31;54731;42.600;23.476;2023-02-08T12:04:51;1.94;48.46
67942;SHT31;54731;42.600;23.476;2023-02-08T12:07:22;1.31;51.51
67942;SHT31;54731;42.600;23.476;2023-02-08T12:16:10;1.04;50.17
67942;SHT31;54731;42.600;23.476;2023-02-08T12:24:20;1.10;49.73
67942;SHT31;54731;42.600;23.476;2023-02-08T12:37:43;1.58;48.82
67942;SHT31;54731;42.600;23.476;2023-02-08T12:40:22;1.53;48.71
67942;SHT31;54731;42.600;23.476;2023-02-08T12:48:43;1.02;49.16
67942;SHT31;54731;42.600;23.476;2023-02-08T12:54:02;1.17;49.75
67942;SHT31;54731;42.600;23.476;2023-02-08T12:56:37;1.33;48.31
67942;SHT31;54731;42.600;23.476;2023-02-08T12:59:05;1.53;48.25
67942;SHT31;54731;42.600;23.476;2023-02-08T13:01:41;1.67;48.92
67942;SHT31;54731;42.600;23.476;2023-02-08T13:04:19;1.81;49.05
67942;SHT31;54731;42.600;23.476;2023-02-08T13:06:50;1.73;48.86
67942;SHT31;54731;42.600;23.476;2023-02-08T13:11:53;1.44;47.83
67942;SHT31;54731;42.600;23.476;2023-02-08T13:14:52;1.36;47.97
67942;SHT31;54731;42.600;23.476;2023-02-08T13:17:26;1.04;49.21
67942;SHT31;54731;42.600;23.476;2023-02-08T13:22:38;0.86;49.57
67942;SHT31;54731;42.600;23.476;2023-02-08T13:25:14;0.89;50.23
67942;SHT31;54731;42.600;23.476;2023-02-08T13:27:40;0.83;49.83
67942;SHT31;54731;42.600;23.476;2023-02-08T13:30:06;0.86;50.13
67942;SHT31;54731;42.600;23.476;2023-02-08T13:32:39;0.85;49.91
67942;SHT31;54731;42.600;23.476;2023-02-08T13:35:16;0.66;50.12
67942;SHT31;54731;42.600;23.476;2023-02-08T13:37:50;0.31;50.49
67942;SHT31;54731;42.600;23.476;2023-02-08T13:40:21;0.44;51.23
67942;SHT31;54731;42.600;23.476;2023-02-08T13:42:58;0.52;50.38
67942;SHT31;54731;42.600;23.476;2023-02-08T13:45:37;0.45;50.37
67942;SHT31;54731;42.600;23.476;2023-02-08T13:48:06;0.40;50.54
67942;SHT31;54731;42.600;23.476;2023-02-08T13:50:53;0.27;50.53
67942;SHT31;54731;42.600;23.476;2023-02-08T13:56:10;0.15;51.51
67942;SHT31;54731;42.600;23.476;2023-02-08T13:58:56;0.11;50.80
67942;SHT31;54731;42.600;23.476;2023-02-08T14:01:27;-0.07;50.56
67942;SHT31;54731;42.600;23.476;2023-02-08T14:06:49;-0.24;51.31
67942;SHT31;54731;42.600;23.476;2023-02-08T14:09:21;-0.31;51.79
67942;SHT31;54731;42.600;23.476;2023-02-08T14:11:51;-0.38;52.30
67942;SHT31;54731;42.600;23.476;2023-02-08T14:14:27;-0.57;52.95
67942;SHT31;54731;42.600;23.476;2023-02-08T14:19:30;-0.70;54.54
67942;SHT31;54731;42.600;23.476;2023-02-08T14:24:48;-0.95;54.91
67942;SHT31;54731;42.600;23.476;2023-02-08T14:27:37;-1.09;54.80
67942;SHT31;54731;42.600;23.476;2023-02-08T14:30:28;-1.25;55.03
67942;SHT31;54731;42.600;23.476;2023-02-08T14:35:30;-1.40;55.30
67942;SHT31;54731;42.600;23.476;2023-02-08T14:40:56;-1.52;55.47
67942;SHT31;54731;42.600;23.476;2023-02-08T14:43:37;-1.78;56.15
67942;SHT31;54731;42.600;23.476;2023-02-08T14:49:09;-1.99;57.16
67942;SHT31;54731;42.600;23.476;2023-02-08T14:51:37;-2.04;57.67
67942;SHT31;54731;42.600;23.476;2023-02-08T14:54:18;-2.18;57.93
67942;SHT31;54731;42.600;23.476;2023-02-08T14:57:09;-2.15;57.65
67942;SHT31;54731;42.600;23.476;2023-02-08T14:59:40;-2.31;58.58
67942;SHT31;54731;42.600;23.476;2023-02-08T15:02:14;-2.34;58.38
67942;SHT31;54731;42.600;23.476;2023-02-08T15:04:44;-2.41;58.02
67942;SHT31;54731;42.600;23.476;2023-02-08T15:07:34;-2.37;58.85
67942;SHT31;54731;42.600;23.476;2023-02-08T15:10:04;-2.38;58.75
67942;SHT31;54731;42.600;23.476;2023-02-08T15:12:36;-2.45;58.67
67942;SHT31;54731;42.600;23.476;2023-02-08T15:15:03;-2.42;59.38
67942;SHT31;54731;42.600;23.476;2023-02-08T15:19:58;-2.49;59.36
67942;SHT31;54731;42.600;23.476;2023-02-08T15:24:51;-2.51;59.52
67942;SHT31;54731;42.600;23.476;2023-02-08T15:27:23;-2.56;60.00
67942;SHT31;54731;42.600;23.476;2023-02-08T15:29:48;-2.61;59.51
67942;SHT31;54731;42.600;23.476;2023-02-08T15:32:16;-2.75;59.95
67942;SHT31;54731;42.600;23.476;2023-02-08T15:34:44;-2.77;59.87
67942;SHT31;54731;42.600;23.476;2023-02-08T15:37:17;-2.86;60.06
67942;SHT31;54731;42.600;23.476;2023-02-08T15:39:45;-2.89;60.44
67942;SHT31;54731;42.600;23.476;2023-02-08T15:42:16;-3.00;60.76
67942;SHT31;54731;42.600;23.476;2023-02-08T15:44:42;-3.04;61.02
67942;SHT31;54731;42.600;23.476;2023-02-08T15:47:14;-3.17;61.38
67942;SHT31;54731;42.600;23.476;2023-02-08T15:49:42;-3.14;61.85
67942;SHT31;54731;42.600;23.476;2023-02-08T15:52:14;-3.23;62.29
67942;SHT31;54731;42.600;23.476;2023-02-08T15:54:42;-3.37;62.50
67942;SHT31;54731;42.600;23.476;2023-02-08T15:57:31;-3.41;62.83
67942;SHT31;54731;42.600;23.476;2023-02-08T15:59:58;-3.47;63.20
67942;SHT31;54731;42.600;23.476;2023-02-08T16:02:33;-3.54;64.03
67942;SHT31;54731;42.600;23.476;2023-02-08T16:05:00;-3.62;64.07
67942;SHT31;54731;42.600;23.476;2023-02-08T16:07:36;-3.67;64.27
67942;SHT31;54731;42.600;23.476;2023-02-08T16:10:03;-3.71;63.86
67942;SHT31;54731;42.600;23.476;2023-02-08T16:12:29;-3.88;63.99
67942;SHT31;54731;42.600;23.476;2023-02-08T16:14:55;-4.05;64.93
67942;SHT31;54731;42.600;23.476;2023-02-08T16:17:43;-4.14;65.16
67942;SHT31;54731;42.600;23.476;2023-02-08T16:23:30;-4.46;66.09
67942;SHT31;54731;42.600;23.476;2023-02-08T16:25:49;-4.52;66.26
67942;SHT31;54731;42.600;23.476;2023-02-08T16:28:31;-4.53;66.15
67942;SHT31;54731;42.600;23.476;2023-02-08T16:30:59;-4.57;66.64
67942;SHT31;54731;42.600;23.476;2023-02-08T16:33:25;-4.60;66.14
67942;SHT31;54731;42.600;23.476;2023-02-08T16:35:51;-4.61;66.29
67942;SHT31;54731;42.600;23.476;2023-02-08T16:38:22;-4.67;66.32
67942;SHT31;54731;42.600;23.476;2023-02-08T16:43:24;-4.80;66.44
67942;SHT31;54731;42.600;23.476;2023-02-08T16:48:42;-4.89;66.85
67942;SHT31;54731;42.600;23.476;2023-02-08T16:51:26;-5.04;66.96
67942;SHT31;54731;42.600;23.476;2023-02-08T16:53:55;-4.97;66.61
67942;SHT31;54731;42.600;23.476;2023-02-08T16:56:21;-5.16;66.84
67942;SHT31;54731;42.600;23.476;2023-02-08T16:58:47;-5.16;66.94
67942;SHT31;54731;42.600;23.476;2023-02-08T17:01:13;-5.22;66.85
67942;SHT31;54731;42.600;23.476;2023-02-08T17:03:39;-5.28;67.05
67942;SHT31;54731;42.600;23.476;2023-02-08T17:06:05;-5.42;67.21
67942;SHT31;54731;42.600;23.476;2023-02-08T17:08:30;-5.60;67.65
67942;SHT31;54731;42.600;23.476;2023-02-08T17:10:55;-5.69;67.94
67942;SHT31;54731;42.600;23.476;2023-02-08T17:13:21;-5.69;68.00
67942;SHT31;54731;42.600;23.476;2023-02-08T17:15:47;-5.83;68.43
67942;SHT31;54731;42.600;23.476;2023-02-08T17:18:13;-5.83;68.83
67942;SHT31;54731;42.600;23.476;2023-02-08T17:20:39;-5.83;68.70
67942;SHT31;54731;42.600;23.476;2023-02-08T17:23:05;-5.91;68.56
67942;SHT31;54731;42.600;23.476;2023-02-08T17:25:31;-5.89;68.58
67942;SHT31;54731;42.600;23.476;2023-02-08T17:28:00;-6.04;69.09
67942;SHT31;54731;42.600;23.476;2023-02-08T17:30:28;-6.07;69.12
67942;SHT31;54731;42.600;23.476;2023-02-08T17:32:54;-6.31;69.73
67942;SHT31;54731;42.600;23.476;2023-02-08T17:35:19;-6.42;70.10
67942;SHT31;54731;42.600;23.476;2023-02-08T17:37:46;-6.45;70.28
67942;SHT31;54731;42.600;23.476;2023-02-08T17:40:12;-6.32;70.31
67942;SHT31;54731;42.600;23.476;2023-02-08T17:42:38;-6.38;70.19
67942;SHT31;54731;42.600;23.476;2023-02-08T17:45:04;-6.44;70.12
67942;SHT31;54731;42.600;23.476;2023-02-08T17:47:29;-6.45;69.99
67942;SHT31;54731;42.600;23.476;2023-02-08T17:49:56;-6.52;70.37
67942;SHT31;54731;42.600;23.476;2023-02-08T17:52:21;-6.55;70.67
67942;SHT31;54731;42.600;23.476;2023-02-08T17:54:46;-6.55;70.77